createdAt,value
2023-02-03T00:00:01.641Z,10.48
2023-02-03T00:05:10.802Z,9.00
2023-02-03T00:07:40.560Z,8.85
2023-02-03T00:10:08.793Z,10.05
2023-02-03T00:12:36.990Z,9.68
2023-02-03T00:15:05.193Z,8.98
2023-02-03T00:17:32.937Z,9.65
2023-02-03T00:20:00.698Z,9.27
2023-02-03T00:22:28.381Z,9.40
2023-02-03T00:24:56.168Z,9.98
2023-02-03T00:27:23.955Z,10.02
2023-02-03T00:29:51.616Z,9.30
2023-02-03T00:32:19.543Z,9.10
2023-02-03T00:34:47.763Z,9.25
2023-02-03T00:37:15.859Z,9.35
2023-02-03T00:39:43.655Z,9.43
2023-02-03T00:42:11.283Z,9.20
2023-02-03T00:44:38.916Z,9.13
2023-02-03T00:47:07.367Z,9.18
2023-02-03T00:49:35.261Z,10.18
2023-02-03T00:52:03.218Z,10.20
2023-02-03T00:54:32.764Z,9.73
2023-02-03T00:57:01.400Z,10.10
2023-02-03T00:59:29.286Z,9.80
2023-02-03T01:01:57.028Z,10.40
2023-02-03T01:04:25.820Z,9.95
2023-02-03T01:06:57.674Z,9.02
2023-02-03T01:09:26.371Z,9.02
2023-02-03T01:11:55.209Z,10.00
2023-02-03T01:14:23.112Z,9.27
2023-02-03T01:16:50.954Z,9.13
2023-02-03T01:19:18.902Z,9.52
2023-02-03T01:21:46.854Z,8.82
2023-02-03T01:24:15.879Z,7.93
2023-02-03T01:26:44.051Z,9.05
2023-02-03T01:29:11.994Z,9.20
2023-02-03T01:31:42.412Z,9.15
2023-02-03T01:34:16.456Z,8.55
2023-02-03T01:36:46.121Z,9.10
2023-02-03T01:39:14.928Z,8.40
2023-02-03T01:41:45.660Z,8.05
2023-02-03T01:44:44.227Z,7.70
2023-02-03T01:47:18.314Z,7.28
2023-02-03T01:50:04.229Z,7.45
2023-02-03T01:52:34.623Z,7.40
2023-02-03T01:55:07.231Z,7.80
2023-02-03T01:57:58.027Z,7.50
2023-02-03T02:00:27.267Z,7.85
2023-02-03T02:03:01.979Z,7.35
2023-02-03T02:05:43.428Z,8.25
2023-02-03T02:08:15.164Z,9.32
2023-02-03T02:10:42.912Z,8.32
2023-02-03T02:13:12.760Z,8.98
2023-02-03T02:16:08.660Z,8.05
2023-02-03T02:18:46.849Z,8.05
2023-02-03T02:21:20.236Z,7.47
2023-02-03T02:23:57.280Z,7.90
2023-02-03T02:26:40.640Z,7.70
2023-02-03T02:29:34.725Z,7.45
2023-02-03T02:32:07.343Z,7.47
2023-02-03T02:34:49.661Z,7.25
2023-02-03T02:37:39.045Z,6.60
2023-02-03T02:40:13.165Z,7.82
2023-02-03T02:43:03.654Z,7.93
2023-02-03T02:45:46.462Z,7.43
2023-02-03T02:48:27.425Z,8.05
2023-02-03T02:50:59.271Z,8.18
2023-02-03T02:53:32.584Z,8.02
2023-02-03T02:56:03.978Z,6.88
2023-02-03T02:58:34.503Z,6.78
2023-02-03T03:01:04.929Z,7.43
2023-02-03T03:03:32.625Z,7.70
2023-02-03T03:06:05.307Z,7.18
2023-02-03T03:08:57.269Z,6.85
2023-02-03T03:11:28.711Z,6.82
2023-02-03T03:13:59.576Z,6.25
2023-02-03T03:16:33.664Z,6.43
2023-02-03T03:19:12.071Z,5.82
2023-02-03T03:21:48.147Z,5.75
2023-02-03T03:24:22.636Z,5.88
2023-02-03T03:26:56.515Z,5.97
2023-02-03T03:29:36.131Z,5.80
2023-02-03T03:32:04.559Z,6.18
2023-02-03T03:34:33.005Z,5.45
2023-02-03T03:37:16.882Z,5.60
2023-02-03T03:40:00.190Z,5.40
2023-02-03T03:42:43.122Z,4.95
2023-02-03T03:45:15.165Z,5.28
2023-02-03T03:47:49.244Z,5.15
2023-02-03T03:50:23.981Z,5.10
2023-02-03T03:52:53.277Z,5.32
2023-02-03T03:55:21.810Z,4.50
2023-02-03T03:57:59.444Z,4.70
2023-02-03T04:00:31.311Z,5.22
2023-02-03T04:03:05.747Z,5.00
2023-02-03T04:05:34.899Z,5.00
2023-02-03T04:08:03.876Z,4.75
2023-02-03T04:10:41.192Z,4.43
2023-02-03T04:15:37.352Z,4.03
2023-02-03T04:18:05.880Z,4.78
2023-02-03T04:20:34.274Z,4.72
2023-02-03T04:23:02.136Z,4.72
2023-02-03T04:25:29.781Z,4.68
2023-02-03T04:27:57.646Z,5.13
2023-02-03T04:30:25.914Z,4.32
2023-02-03T04:32:54.511Z,4.38
2023-02-03T04:35:23.304Z,4.97
2023-02-03T04:37:51.341Z,5.18
2023-02-03T04:40:19.378Z,5.03
2023-02-03T04:42:47.121Z,4.57
2023-02-03T04:45:14.875Z,5.15
2023-02-03T04:47:42.898Z,4.80
2023-02-03T04:50:10.786Z,4.72
2023-02-03T04:52:38.586Z,4.63
2023-02-03T04:55:06.809Z,4.30
2023-02-03T04:57:34.984Z,4.10
2023-02-03T05:00:02.724Z,4.53
2023-02-03T05:02:30.382Z,4.57
2023-02-03T05:04:58.011Z,4.35
2023-02-03T05:07:25.707Z,4.53
2023-02-03T05:09:53.321Z,4.25
2023-02-03T05:12:20.941Z,4.72
2023-02-03T05:14:48.662Z,4.35
2023-02-03T05:17:16.426Z,4.32
2023-02-03T05:19:44.184Z,5.18
2023-02-03T05:22:12.419Z,4.55
2023-02-03T05:24:40.316Z,5.20
2023-02-03T05:27:08.143Z,6.22
2023-02-03T05:29:36.089Z,6.43
2023-02-03T05:32:04.362Z,6.57
2023-02-03T05:34:32.120Z,5.95
2023-02-03T05:37:00.995Z,6.45
2023-02-03T05:39:28.685Z,6.03
2023-02-03T05:41:58.275Z,5.65
2023-02-03T05:44:28.554Z,5.93
2023-02-03T05:46:59.093Z,6.15
2023-02-03T05:49:27.274Z,6.40
2023-02-03T05:51:56.630Z,6.35
2023-02-03T05:54:24.283Z,6.53
2023-02-03T05:56:52.648Z,6.88
2023-02-03T05:59:20.422Z,6.53
2023-02-03T06:01:48.898Z,7.25
2023-02-03T06:04:16.705Z,7.03
2023-02-03T06:06:44.324Z,6.60
2023-02-03T06:09:11.985Z,6.20
2023-02-03T06:11:39.686Z,6.35
2023-02-03T06:14:07.305Z,6.00
2023-02-03T06:16:35.027Z,8.60
2023-02-03T06:19:02.836Z,9.20
2023-02-03T06:21:31.388Z,10.52
2023-02-03T06:23:59.216Z,10.50
2023-02-03T06:26:27.072Z,9.82
2023-02-03T06:28:54.978Z,9.32
2023-02-03T06:31:23.439Z,9.02
2023-02-03T06:33:51.192Z,8.63
2023-02-03T06:36:18.998Z,9.27
2023-02-03T06:38:46.766Z,9.05
2023-02-03T06:41:14.563Z,8.70
2023-02-03T06:43:42.180Z,9.10
2023-02-03T06:46:10.116Z,9.18
2023-02-03T06:48:37.805Z,8.43
2023-02-03T06:51:06.569Z,8.23
2023-02-03T06:53:34.379Z,7.72
2023-02-03T06:56:03.499Z,7.35
2023-02-03T06:58:31.480Z,7.38
2023-02-03T07:00:59.289Z,7.03
2023-02-03T07:03:27.078Z,7.10
2023-02-03T07:05:54.806Z,7.80
2023-02-03T07:08:22.409Z,7.15
2023-02-03T07:10:56.506Z,6.93
2023-02-03T07:13:24.248Z,7.35
2023-02-03T07:15:51.982Z,6.65
2023-02-03T07:18:45.750Z,7.35
2023-02-03T07:21:14.199Z,7.60
2023-02-03T07:23:42.108Z,7.28
2023-02-03T07:26:11.028Z,7.07
2023-02-03T07:28:38.652Z,7.15
2023-02-03T07:31:08.344Z,7.97
2023-02-03T07:33:37.135Z,7.60
2023-02-03T07:36:05.381Z,7.15
2023-02-03T07:38:33.411Z,7.53
2023-02-03T07:41:01.073Z,7.68
2023-02-03T07:43:28.819Z,7.72
2023-02-03T07:45:56.982Z,7.97
2023-02-03T07:48:25.369Z,8.95
2023-02-03T07:50:53.087Z,8.52
2023-02-03T07:53:21.156Z,8.40
2023-02-03T07:55:49.627Z,8.23
2023-02-03T07:58:17.388Z,8.10
2023-02-03T08:00:45.336Z,8.60
2023-02-03T08:03:13.149Z,9.82
2023-02-03T08:05:40.806Z,9.35
2023-02-03T08:08:08.755Z,9.93
2023-02-03T08:10:36.708Z,9.65
2023-02-03T08:13:04.397Z,9.05
2023-02-03T08:15:32.401Z,8.85
2023-02-03T08:18:00.611Z,8.50
2023-02-03T08:20:28.523Z,8.65
2023-02-03T08:22:56.543Z,9.23
2023-02-03T08:25:24.336Z,9.82
2023-02-03T08:27:53.984Z,9.10
2023-02-03T08:30:23.175Z,9.90
2023-02-03T08:32:50.921Z,8.93
2023-02-03T08:35:19.325Z,9.02
2023-02-03T08:37:47.323Z,8.80
2023-02-03T08:40:15.874Z,7.53
2023-02-03T08:42:44.047Z,7.70
2023-02-03T08:45:12.158Z,7.57
2023-02-03T08:47:40.359Z,8.48
2023-02-03T08:50:09.419Z,7.18
2023-02-03T08:52:37.488Z,6.80
2023-02-03T08:55:06.168Z,11.38
2023-02-03T08:57:37.931Z,8.65
2023-02-03T09:00:06.823Z,9.00
2023-02-03T09:02:34.822Z,7.30
2023-02-03T09:05:03.041Z,6.32
2023-02-03T09:07:30.882Z,6.18
2023-02-03T09:09:58.489Z,6.25
2023-02-03T09:12:26.188Z,5.90
2023-02-03T09:14:54.226Z,6.15
2023-02-03T09:17:22.025Z,5.60
2023-02-03T09:19:49.829Z,6.03
2023-02-03T09:22:17.698Z,6.00
2023-02-03T09:24:45.752Z,6.00
2023-02-03T09:27:13.511Z,5.10
2023-02-03T09:29:41.374Z,5.57
2023-02-03T09:32:11.113Z,5.03
2023-02-03T09:34:41.420Z,4.95
2023-02-03T09:37:09.363Z,5.68
2023-02-03T09:39:37.435Z,5.25
2023-02-03T09:42:14.250Z,5.53
2023-02-03T09:44:46.826Z,5.70
2023-02-03T09:47:23.040Z,5.68
2023-02-03T09:49:58.503Z,7.07
2023-02-03T09:52:32.967Z,9.02
2023-02-03T09:55:31.905Z,10.15
2023-02-03T09:58:14.369Z,12.98
2023-02-03T10:00:44.891Z,11.20
2023-02-03T10:03:28.007Z,14.07
2023-02-03T10:06:20.559Z,11.50
2023-02-03T10:09:00.037Z,10.73
2023-02-03T10:11:41.216Z,11.20
2023-02-03T10:14:30.588Z,10.20
2023-02-03T10:17:32.311Z,11.40
2023-02-03T10:20:07.404Z,12.15
2023-02-03T10:22:42.248Z,11.30
2023-02-03T10:25:44.612Z,11.05
2023-02-03T10:28:19.844Z,11.80
2023-02-03T10:30:52.374Z,13.25
2023-02-03T10:33:22.339Z,13.40
2023-02-03T10:36:02.422Z,12.35
2023-02-03T10:38:50.282Z,13.50
2023-02-03T10:41:20.778Z,12.80
2023-02-03T10:43:53.821Z,12.73
2023-02-03T10:46:29.875Z,12.65
2023-02-03T10:48:57.768Z,12.57
2023-02-03T10:51:26.833Z,13.98
2023-02-03T10:53:58.410Z,15.48
2023-02-03T10:56:30.205Z,14.70
2023-02-03T10:59:00.915Z,14.55
2023-02-03T11:01:50.377Z,14.35
2023-02-03T11:04:27.809Z,14.18
2023-02-03T11:07:08.415Z,14.40
2023-02-03T11:09:42.240Z,13.52
2023-02-03T11:12:23.637Z,13.57
2023-02-03T11:14:53.755Z,14.07
2023-02-03T11:17:27.601Z,13.20
2023-02-03T11:20:20.411Z,14.05
2023-02-03T11:22:48.887Z,13.25
2023-02-03T11:25:20.929Z,13.20
2023-02-03T11:27:49.010Z,13.38
2023-02-03T11:30:30.561Z,13.00
2023-02-03T11:33:02.278Z,13.07
2023-02-03T11:35:31.985Z,13.27
2023-02-03T11:38:01.943Z,12.07
2023-02-03T11:40:34.551Z,12.85
2023-02-03T11:43:17.300Z,11.88
2023-02-03T11:45:49.490Z,13.18
2023-02-03T11:48:37.914Z,12.38
2023-02-03T11:51:26.709Z,13.95
2023-02-03T11:54:11.720Z,12.10
2023-02-03T11:57:20.168Z,14.40
2023-02-03T12:00:00.147Z,15.10
2023-02-03T12:02:40.062Z,16.50
2023-02-03T12:05:26.635Z,14.35
2023-02-03T12:08:19.038Z,13.90
2023-02-03T12:11:04.891Z,14.77
2023-02-03T12:13:56.394Z,14.93
2023-02-03T12:17:07.607Z,13.93
2023-02-03T12:19:53.887Z,13.57
2023-02-03T12:22:45.292Z,13.48
2023-02-03T12:25:35.052Z,13.48
2023-02-03T12:28:33.561Z,14.23
2023-02-03T12:31:14.847Z,15.32
2023-02-03T12:33:53.980Z,17.75
2023-02-03T12:36:28.870Z,20.35
2023-02-03T12:39:04.121Z,19.50
2023-02-03T12:41:40.993Z,20.27
2023-02-03T12:44:32.501Z,18.73
2023-02-03T12:47:22.983Z,17.60
2023-02-03T12:49:55.495Z,17.10
2023-02-03T12:52:29.528Z,15.73
2023-02-03T12:55:15.239Z,15.38
2023-02-03T12:57:48.923Z,11.40
2023-02-03T13:00:48.816Z,9.32
2023-02-03T13:03:41.429Z,10.90
2023-02-03T13:06:24.868Z,9.20
2023-02-03T13:09:24.545Z,8.20
2023-02-03T13:12:22.610Z,9.32
2023-02-03T13:14:55.880Z,10.13
2023-02-03T13:17:42.166Z,20.48
2023-02-03T13:20:27.297Z,24.60
2023-02-03T13:22:55.365Z,32.97
2023-02-03T13:25:35.388Z,34.22
2023-02-03T13:28:32.283Z,34.55
2023-02-03T13:31:13.830Z,29.23
2023-02-03T13:34:07.442Z,20.23
2023-02-03T13:36:51.171Z,19.35
2023-02-03T13:39:43.938Z,22.92
2023-02-03T13:42:22.165Z,29.42
2023-02-03T13:44:59.616Z,37.70
2023-02-03T13:47:32.745Z,33.80
2023-02-03T13:50:16.832Z,30.08
2023-02-03T13:52:56.294Z,23.98
2023-02-03T13:55:33.519Z,21.00
2023-02-03T13:58:01.924Z,20.10
2023-02-03T14:00:45.420Z,18.20
2023-02-03T14:03:39.979Z,16.25
2023-02-03T14:06:55.729Z,16.52
2023-02-03T14:09:35.535Z,16.73
2023-02-03T14:12:15.605Z,17.10
2023-02-03T14:14:55.559Z,17.05
2023-02-03T14:17:35.722Z,21.60
2023-02-03T14:20:24.608Z,16.98
2023-02-03T14:23:21.397Z,15.15
2023-02-03T14:25:55.564Z,13.40
2023-02-03T14:28:42.986Z,12.65
2023-02-03T14:31:25.384Z,11.88
2023-02-03T14:33:57.802Z,10.68
2023-02-03T14:36:35.234Z,9.55
2023-02-03T14:39:22.640Z,9.90
2023-02-03T14:42:02.743Z,9.48
2023-02-03T14:44:36.441Z,9.70
2023-02-03T14:47:26.109Z,9.38
2023-02-03T14:50:15.631Z,9.45
2023-02-03T14:53:02.171Z,10.43
2023-02-03T14:55:39.773Z,10.90
2023-02-03T14:58:23.092Z,10.43
2023-02-03T15:00:54.737Z,9.98
2023-02-03T15:03:30.455Z,9.40
2023-02-03T15:06:05.099Z,10.20
2023-02-03T15:08:44.551Z,10.13
2023-02-03T15:11:46.998Z,10.05
2023-02-03T15:14:31.596Z,10.20
2023-02-03T15:17:02.551Z,10.95
2023-02-03T15:19:41.007Z,10.55
2023-02-03T15:22:27.529Z,10.60
2023-02-03T15:25:19.752Z,9.75
2023-02-03T15:27:48.181Z,8.90
2023-02-03T15:30:27.777Z,9.30
2023-02-03T15:33:04.551Z,10.07
2023-02-03T15:35:34.584Z,9.02
2023-02-03T15:38:28.009Z,8.65
2023-02-03T15:40:59.072Z,10.05
2023-02-03T15:43:39.564Z,10.65
2023-02-03T15:46:27.085Z,10.30
2023-02-03T15:49:00.256Z,10.60
2023-02-03T15:51:36.613Z,10.98
2023-02-03T15:54:30.774Z,10.00
2023-02-03T15:56:58.611Z,10.18
2023-02-03T15:59:30.671Z,9.80
2023-02-03T16:02:01.156Z,10.10
2023-02-03T16:04:31.250Z,9.52
2023-02-03T16:06:59.646Z,10.38
2023-02-03T16:09:39.756Z,10.13
2023-02-03T16:12:24.561Z,10.30
2023-02-03T16:14:54.137Z,10.02
2023-02-03T16:17:31.822Z,10.73
2023-02-03T16:20:11.702Z,9.10
2023-02-03T16:22:46.379Z,9.90
2023-02-03T16:25:24.134Z,9.65
2023-02-03T16:28:18.451Z,9.48
2023-02-03T16:31:38.792Z,9.90
2023-02-03T16:34:36.167Z,9.60
2023-02-03T16:37:52.294Z,10.10
2023-02-03T16:40:42.702Z,10.32
2023-02-03T16:43:34.487Z,10.43
2023-02-03T16:46:20.839Z,10.30
2023-02-03T16:49:07.392Z,10.30
2023-02-03T16:51:40.224Z,10.20
2023-02-03T16:54:14.424Z,9.85
2023-02-03T16:56:42.222Z,10.13
2023-02-03T16:59:11.092Z,9.43
2023-02-03T17:01:40.731Z,9.18
2023-02-03T17:04:13.731Z,8.75
2023-02-03T17:06:41.628Z,8.60
2023-02-03T17:09:09.356Z,8.40
2023-02-03T17:11:37.189Z,9.13
2023-02-03T17:14:05.074Z,9.48
2023-02-03T17:16:34.185Z,10.48
2023-02-03T17:19:03.227Z,8.75
2023-02-03T17:21:31.553Z,8.57
2023-02-03T17:24:00.251Z,8.45
2023-02-03T17:26:28.273Z,8.68
2023-02-03T17:28:56.093Z,8.80
2023-02-03T17:31:23.974Z,8.65
2023-02-03T17:33:53.330Z,8.23
2023-02-03T17:36:22.125Z,8.65
2023-02-03T17:55:22.495Z,8.13
2023-02-03T17:57:50.247Z,7.85
2023-02-03T18:00:18.377Z,7.85
2023-02-03T18:02:50.945Z,7.30
2023-02-03T18:05:19.322Z,7.13
2023-02-03T18:10:19.921Z,6.80
2023-02-03T18:12:47.700Z,7.20
2023-02-03T18:15:16.856Z,6.85
2023-02-03T18:17:44.595Z,6.80
2023-02-03T18:20:13.846Z,7.82
2023-02-03T18:22:41.745Z,7.70
2023-02-03T18:25:10.184Z,8.13
2023-02-03T18:27:38.426Z,7.32
2023-02-03T18:30:06.850Z,7.18
2023-02-03T18:32:35.060Z,7.05
2023-02-03T18:35:03.839Z,7.10
2023-02-03T18:37:31.721Z,7.35
2023-02-03T18:40:00.945Z,7.93
2023-02-03T18:42:28.942Z,6.70
2023-02-03T18:44:56.588Z,7.20
2023-02-03T18:47:24.474Z,7.38
2023-02-03T18:49:52.199Z,7.80
2023-02-03T18:52:20.221Z,8.18
2023-02-03T18:54:49.994Z,7.72
2023-02-03T18:57:17.956Z,9.18
2023-02-03T18:59:46.033Z,9.93
2023-02-03T19:02:13.796Z,9.27
2023-02-03T19:04:43.581Z,9.73
2023-02-03T19:07:13.315Z,10.25
2023-02-03T19:09:41.345Z,10.25
2023-02-03T19:12:09.946Z,10.63
2023-02-03T19:14:37.810Z,10.52
2023-02-03T19:17:05.568Z,13.90
2023-02-03T19:19:34.194Z,14.35
2023-02-03T19:22:02.070Z,12.52
2023-02-03T19:24:31.025Z,13.13
2023-02-03T19:26:58.728Z,12.25
2023-02-03T19:29:26.652Z,36.10
2023-02-03T19:31:54.493Z,55.13
2023-02-03T19:34:22.730Z,53.30
2023-02-03T19:36:52.045Z,45.78
2023-02-03T19:39:21.755Z,38.30
2023-02-03T19:41:49.628Z,30.98
2023-02-03T19:44:18.957Z,27.65
2023-02-03T19:46:46.736Z,22.10
2023-02-03T19:49:15.323Z,20.98
2023-02-03T19:51:44.068Z,18.05
2023-02-03T19:54:15.270Z,17.58
2023-02-03T19:56:44.686Z,15.65
2023-02-03T19:59:14.041Z,14.00
2023-02-03T20:01:42.836Z,13.82
2023-02-03T20:04:11.656Z,13.18
2023-02-03T20:06:39.636Z,13.15
2023-02-03T20:09:07.571Z,12.55
2023-02-03T20:11:37.391Z,11.60
2023-02-03T20:14:05.549Z,11.65
2023-02-03T20:16:33.361Z,12.73
2023-02-03T20:19:01.421Z,13.18
2023-02-03T20:21:29.502Z,12.23
2023-02-03T20:23:57.261Z,14.25
2023-02-03T20:26:25.050Z,12.68
2023-02-03T20:28:52.970Z,12.18
2023-02-03T20:31:21.801Z,12.63
2023-02-03T20:33:49.671Z,12.80
2023-02-03T20:36:18.265Z,13.68
2023-02-03T20:38:46.537Z,15.45
2023-02-03T20:41:18.284Z,16.63
2023-02-03T20:43:46.157Z,14.27
2023-02-03T20:46:17.739Z,13.88
2023-02-03T20:48:46.432Z,14.25
2023-02-03T20:51:16.553Z,15.88
2023-02-03T20:53:44.795Z,14.35
2023-02-03T20:56:18.414Z,14.85
2023-02-03T20:58:46.349Z,15.00
2023-02-03T21:01:19.207Z,13.50
2023-02-03T21:04:06.616Z,12.40
2023-02-03T21:06:34.914Z,12.35
2023-02-03T21:09:18.233Z,13.85
2023-02-03T21:11:46.259Z,15.35
2023-02-03T21:14:22.083Z,14.93
2023-02-03T21:16:50.886Z,15.20
2023-02-03T21:19:30.198Z,15.60
2023-02-03T21:21:58.449Z,13.32
2023-02-03T21:24:33.642Z,13.15
2023-02-03T21:27:02.716Z,13.48
2023-02-03T21:29:36.965Z,12.00
2023-02-03T21:32:13.532Z,13.30
2023-02-03T21:34:43.976Z,14.93
2023-02-03T21:37:20.811Z,14.05
2023-02-03T21:39:49.316Z,14.32
2023-02-03T21:42:43.515Z,14.15
2023-02-03T21:45:14.592Z,16.05
2023-02-03T21:47:46.975Z,14.48
2023-02-03T21:50:31.297Z,14.13
2023-02-03T21:53:16.340Z,12.95
2023-02-03T21:55:44.373Z,12.30
2023-02-03T21:58:12.103Z,11.85
2023-02-03T22:00:47.585Z,13.02
2023-02-03T22:03:27.294Z,12.75
2023-02-03T22:06:19.401Z,12.07
2023-02-03T22:08:49.943Z,13.68
2023-02-03T22:11:20.159Z,13.43
2023-02-03T22:13:48.169Z,14.00
2023-02-03T22:16:19.641Z,14.57
2023-02-03T22:18:49.010Z,15.13
2023-02-03T22:21:17.655Z,17.45
2023-02-03T22:23:45.684Z,16.38
2023-02-03T22:26:14.685Z,15.60
2023-02-03T22:28:43.428Z,15.15
2023-02-03T22:31:13.204Z,14.63
2023-02-03T22:33:42.163Z,14.00
2023-02-03T22:36:11.009Z,13.85
2023-02-03T22:38:41.495Z,14.73
2023-02-03T22:41:14.260Z,14.90
2023-02-03T22:43:42.062Z,15.23
2023-02-03T22:46:10.158Z,15.68
2023-02-03T22:48:38.973Z,16.60
2023-02-03T22:51:07.071Z,16.80
2023-02-03T22:53:35.089Z,16.85
2023-02-03T22:56:03.416Z,17.10
2023-02-03T22:58:31.298Z,17.35
2023-02-03T23:00:59.427Z,16.90
2023-02-03T23:03:28.188Z,17.45
2023-02-03T23:05:58.427Z,16.55
2023-02-03T23:08:26.093Z,16.52
2023-02-03T23:10:53.950Z,16.88
2023-02-03T23:13:22.303Z,15.50
2023-02-03T23:15:50.210Z,15.45
2023-02-03T23:18:18.311Z,16.08
2023-02-03T23:20:46.228Z,15.77
2023-02-03T23:23:14.462Z,15.43
2023-02-03T23:25:42.512Z,16.75
2023-02-03T23:28:10.591Z,16.63
2023-02-03T23:30:38.359Z,17.02
2023-02-03T23:33:06.229Z,16.95
2023-02-03T23:35:46.075Z,17.65
2023-02-03T23:38:15.376Z,17.00
2023-02-03T23:40:43.658Z,16.45
2023-02-03T23:43:11.416Z,17.67
2023-02-03T23:45:39.375Z,16.80
2023-02-03T23:48:07.823Z,16.73
2023-02-03T23:50:35.762Z,20.55
2023-02-03T23:53:03.368Z,23.10
2023-02-03T23:55:31.548Z,24.40
2023-02-03T23:57:59.496Z,23.42
